Time;durP1;ratioP1;P1;durP2;ratioP2;P2;SDS_P1;SDS_P2;PMS_P1;PMS_P2;Temp;Humidity;BMP_temperature;BMP_pressure;BME280_temperature;BME280_humidity;BME280_pressure;Samples;Min_cycle;Max_cycle;Signal;HPM_P1;HPM_P2
2023/06/08 00:02:25;;;;;;;18.85;10.70;;;12.00;99.90;;;;;;5113794;28;20083;-61
2023/06/08 00:04:52;;;;;;;24.63;12.23;;;12.10;99.90;;;;;;5113999;28;20488;-62
2023/06/08 00:07:18;;;;;;;16.23;11.18;;;12.10;99.90;;;;;;5097358;28;20078;-62
2023/06/08 00:09:45;;;;;;;19.20;11.45;;;12.10;99.90;;;;;;5091796;28;20485;-62
2023/06/08 00:12:11;;;;;;;18.02;10.25;;;12.10;99.90;;;;;;5075247;28;20044;-62
2023/06/08 00:14:37;;;;;;;19.77;10.55;;;12.00;99.90;;;;;;5091916;28;20397;-62
2023/06/08 00:17:04;;;;;;;16.80;10.20;;;12.00;99.90;;;;;;5094959;28;20039;-62
2023/06/08 00:19:36;;;;;;;16.02;8.90;;;12.00;99.90;;;;;;5112034;28;20543;-62
2023/06/08 00:22:04;;;;;;;16.55;9.77;;;12.00;99.90;;;;;;5113174;28;20400;-62
2023/06/08 00:24:31;;;;;;;15.32;9.82;;;12.00;99.90;;;;;;5094912;28;20035;-62
2023/06/08 00:26:57;;;;;;;15.18;9.55;;;12.00;99.90;;;;;;5111363;28;20518;-62
2023/06/08 00:29:23;;;;;;;18.30;10.80;;;12.00;99.90;;;;;;5093189;28;20076;-62
2023/06/08 00:31:48;;;;;;;20.05;10.43;;;12.00;99.90;;;;;;5092848;28;20036;-62
2023/06/08 00:34:15;;;;;;;18.90;10.45;;;11.90;99.90;;;;;;5092521;28;20036;-62
2023/06/08 00:36:40;;;;;;;16.67;9.80;;;11.90;99.90;;;;;;5091441;28;20046;-62
2023/06/08 00:39:06;;;;;;;15.20;9.93;;;11.90;99.90;;;;;;5092724;28;20028;-62
2023/06/08 00:41:32;;;;;;;16.70;10.15;;;11.90;99.90;;;;;;5092426;28;20464;-62
2023/06/08 00:43:57;;;;;;;17.10;10.18;;;11.90;99.90;;;;;;5091562;28;20044;-62
2023/06/08 00:46:25;;;;;;;21.42;9.88;;;11.90;99.90;;;;;;5092514;28;20040;-62
2023/06/08 00:48:52;;;;;;;17.67;10.50;;;11.90;99.90;;;;;;5090868;28;20033;-62
2023/06/08 00:51:19;;;;;;;15.25;9.90;;;11.90;99.90;;;;;;5091047;28;20045;-62
2023/06/08 00:53:46;;;;;;;19.05;9.80;;;11.90;99.90;;;;;;5091208;28;20485;-62
2023/06/08 00:56:16;;;;;;;16.00;8.85;;;11.90;99.90;;;;;;5091109;28;20105;-61
2023/06/08 00:58:48;;;;;;;16.67;9.80;;;11.90;99.90;;;;;;5074258;28;20089;-62
2023/06/08 01:01:19;;;;;;;24.10;10.32;;;11.90;99.90;;;;;;5092544;28;20390;-62
2023/06/08 01:03:48;;;;;;;19.38;9.70;;;11.90;99.90;;;;;;5091988;28;20058;-62
2023/06/08 01:06:16;;;;;;;18.35;9.93;;;12.00;99.90;;;;;;5090856;28;20093;-62
2023/06/08 01:09:19;;;;;;;17.02;10.35;;;12.00;99.90;;;;;;5092364;28;20044;-62
2023/06/08 01:11:57;;;;;;;17.13;9.50;;;12.00;99.90;;;;;;5091296;28;20047;-62
2023/06/08 01:14:26;;;;;;;18.83;9.70;;;12.00;99.90;;;;;;5091078;28;20430;-62
2023/06/08 01:17:00;;;;;;;19.17;11.00;;;12.00;99.90;;;;;;5073699;28;20048;-62
2023/06/08 01:19:39;;;;;;;20.75;9.98;;;12.00;99.90;;;;;;5091927;28;20086;-62
2023/06/08 01:22:18;;;;;;;18.52;9.70;;;12.00;99.90;;;;;;5091255;28;20485;-62
2023/06/08 01:24:50;;;;;;;17.42;9.07;;;12.00;99.90;;;;;;5091434;28;20044;-62
2023/06/08 01:27:19;;;;;;;18.73;9.95;;;12.00;99.90;;;;;;5091739;28;20420;-62
2023/06/08 01:29:45;;;;;;;14.80;9.10;;;12.00;99.90;;;;;;5105264;28;20086;-62
2023/06/08 01:32:11;;;;;;;16.85;9.27;;;12.00;99.90;;;;;;5112071;28;20063;-62
2023/06/08 01:34:39;;;;;;;22.65;9.02;;;11.90;99.90;;;;;;5112290;28;20438;-63
2023/06/08 01:37:14;;;;;;;14.48;8.55;;;11.90;99.90;;;;;;5111645;28;20162;-62
2023/06/08 01:39:58;;;;;;;14.90;8.38;;;11.90;99.90;;;;;;5111344;28;20075;-62
2023/06/08 01:42:25;;;;;;;16.73;9.32;;;11.90;99.90;;;;;;5112252;28;20100;-62
2023/06/08 01:45:03;;;;;;;13.65;8.88;;;11.90;99.90;;;;;;5110875;28;20095;-63
2023/06/08 01:47:35;;;;;;;16.33;9.00;;;11.90;99.90;;;;;;5112265;28;20108;-62
2023/06/08 01:50:03;;;;;;;15.27;9.00;;;11.90;99.90;;;;;;5111716;28;20035;-63
2023/06/08 01:52:29;;;;;;;15.18;9.05;;;12.00;99.90;;;;;;5111548;28;20404;-62
2023/06/08 01:54:55;;;;;;;15.82;8.95;;;12.00;99.90;;;;;;5112156;28;20044;-62
2023/06/08 01:57:21;;;;;;;17.38;10.20;;;12.00;99.90;;;;;;5112381;28;20392;-62
2023/06/08 01:59:47;;;;;;;15.90;9.02;;;12.00;99.90;;;;;;5111566;28;20043;-63
2023/06/08 02:02:13;;;;;;;15.98;9.45;;;12.00;99.90;;;;;;5110627;28;20500;-62
2023/06/08 02:04:38;;;;;;;18.75;11.18;;;12.00;99.90;;;;;;5113225;28;20069;-62
2023/06/08 02:07:05;;;;;;;19.83;9.70;;;12.00;99.90;;;;;;5116087;28;20089;-62
2023/06/08 02:09:30;;;;;;;16.58;11.15;;;12.00;99.90;;;;;;5116173;28;20031;-62
2023/06/08 02:12:06;;;;;;;16.25;10.13;;;12.00;99.90;;;;;;5114526;28;20453;-63
2023/06/08 02:14:32;;;;;;;21.50;11.15;;;12.00;99.90;;;;;;5115587;27;20039;-62
2023/06/08 02:17:00;;;;;;;16.92;10.05;;;12.00;99.90;;;;;;5115245;27;20035;-62
2023/06/08 02:19:26;;;;;;;17.25;9.00;;;12.00;99.90;;;;;;5114187;28;20046;-63
2023/06/08 02:21:52;;;;;;;15.75;7.90;;;12.00;99.90;;;;;;5114910;28;20511;-63
2023/06/08 02:24:19;;;;;;;14.68;8.90;;;12.10;99.90;;;;;;5115637;28;20547;-62
2023/06/08 02:26:44;;;;;;;21.80;9.80;;;12.00;99.90;;;;;;5115103;27;20085;-63
2023/06/08 02:29:10;;;;;;;17.73;9.05;;;12.10;99.90;;;;;;5097359;28;20074;-62
2023/06/08 02:31:36;;;;;;;16.95;8.68;;;12.10;99.90;;;;;;5115305;28;20032;-62
2023/06/08 02:34:01;;;;;;;16.77;8.50;;;12.10;99.90;;;;;;5115390;28;20032;-62
2023/06/08 02:36:31;;;;;;;15.43;8.73;;;12.10;99.90;;;;;;5115858;28;20050;-63
2023/06/08 02:38:57;;;;;;;15.95;8.05;;;12.10;99.90;;;;;;5115473;28;20053;-62
2023/06/08 02:41:23;;;;;;;19.23;9.38;;;12.10;99.90;;;;;;5114689;28;20507;-63
2023/06/08 02:43:49;;;;;;;16.48;8.48;;;12.10;99.90;;;;;;5115256;28;20044;-62
2023/06/08 02:46:15;;;;;;;18.05;9.20;;;12.10;99.90;;;;;;5115394;28;20192;-63
2023/06/08 02:48:40;;;;;;;14.95;8.15;;;12.10;99.90;;;;;;5114689;28;20078;-62
2023/06/08 02:51:06;;;;;;;16.83;9.23;;;12.10;99.90;;;;;;5115586;28;20043;-62
2023/06/08 02:53:32;;;;;;;14.68;8.35;;;12.10;99.90;;;;;;5115118;28;20499;-63
2023/06/08 02:55:58;;;;;;;16.45;8.95;;;12.20;99.90;;;;;;5114860;27;20064;-63
2023/06/08 02:58:24;;;;;;;12.73;8.05;;;12.10;99.90;;;;;;5114150;28;20043;-63
2023/06/08 03:00:53;;;;;;;17.42;9.35;;;12.10;99.90;;;;;;5115089;28;20487;-62
2023/06/08 03:03:23;;;;;;;15.93;9.50;;;12.10;99.90;;;;;;5113280;28;20115;-62
2023/06/08 03:05:50;;;;;;;16.45;8.63;;;12.10;99.90;;;;;;5114469;28;20492;-62
2023/06/08 03:08:16;;;;;;;15.77;7.55;;;12.10;99.90;;;;;;5100538;28;20039;-62
2023/06/08 03:10:42;;;;;;;15.10;8.93;;;12.10;99.90;;;;;;5114538;28;20051;-62
2023/06/08 03:13:08;;;;;;;14.70;8.00;;;12.20;99.90;;;;;;5104898;27;20036;-62
2023/06/08 03:15:34;;;;;;;16.90;8.65;;;12.20;99.90;;;;;;5093137;28;20077;-62
2023/06/08 03:18:01;;;;;;;16.92;8.63;;;12.20;99.90;;;;;;5092688;28;20114;-62
2023/06/08 03:20:26;;;;;;;15.38;8.48;;;12.10;99.90;;;;;;5093216;28;20500;-62
2023/06/08 03:22:52;;;;;;;13.13;7.43;;;12.20;99.90;;;;;;5092829;28;20080;-62
2023/06/08 03:25:21;;;;;;;14.85;7.53;;;12.20;99.90;;;;;;5093024;28;20040;-62
2023/06/08 03:27:46;;;;;;;17.48;8.93;;;12.20;99.90;;;;;;5075591;28;20048;-62
2023/06/08 03:30:12;;;;;;;15.75;8.15;;;12.20;99.90;;;;;;5093979;28;20512;-62
2023/06/08 03:32:38;;;;;;;11.90;6.05;;;12.20;99.90;;;;;;5092770;28;20393;-62
2023/06/08 03:35:04;;;;;;;11.07;5.78;;;12.20;99.90;;;;;;5076125;28;20093;-62
2023/06/08 03:37:30;;;;;;;16.90;7.47;;;12.20;99.90;;;;;;5093639;28;20119;-62
2023/06/08 03:39:56;;;;;;;13.48;6.43;;;12.20;99.90;;;;;;5092898;28;20127;-62
2023/06/08 03:42:21;;;;;;;14.02;6.75;;;12.20;99.90;;;;;;5094035;28;20043;-62
2023/06/08 03:44:47;;;;;;;15.95;7.47;;;12.20;99.90;;;;;;5093294;28;20059;-62
2023/06/08 03:47:14;;;;;;;14.23;6.18;;;12.20;99.90;;;;;;5093720;28;20051;-62
2023/06/08 03:49:40;;;;;;;13.38;6.65;;;12.20;99.90;;;;;;5092873;28;20074;-62
2023/06/08 03:52:05;;;;;;;17.27;6.38;;;12.20;99.90;;;;;;5092261;28;20481;-62
2023/06/08 03:54:31;;;;;;;16.00;5.50;;;12.20;99.90;;;;;;5093619;28;20036;-62
2023/06/08 03:56:57;;;;;;;10.32;5.05;;;12.20;99.90;;;;;;5092423;28;20048;-62
2023/06/08 03:59:22;;;;;;;16.60;5.93;;;12.20;99.90;;;;;;5091967;28;20072;-62
2023/06/08 04:01:48;;;;;;;12.00;6.15;;;12.20;99.90;;;;;;5092130;28;20040;-62
2023/06/08 04:04:14;;;;;;;11.50;6.25;;;12.20;99.90;;;;;;5093663;28;20047;-62
2023/06/08 04:06:40;;;;;;;13.35;6.28;;;12.30;99.90;;;;;;5092927;28;20088;-63
2023/06/08 04:09:06;;;;;;;16.58;5.65;;;12.30;99.90;;;;;;5097680;28;20039;-62
2023/06/08 04:11:32;;;;;;;16.23;5.60;;;12.30;99.90;;;;;;5113461;28;20110;-62
2023/06/08 04:13:58;;;;;;;12.68;5.32;;;12.30;99.90;;;;;;5111894;28;20134;-62
2023/06/08 04:16:23;;;;;;;11.93;5.80;;;12.30;99.90;;;;;;5112356;28;20035;-62
2023/06/08 04:18:49;;;;;;;12.60;5.18;;;12.30;99.90;;;;;;5112380;28;20055;-62
2023/06/08 04:21:15;;;;;;;13.82;5.47;;;12.30;99.90;;;;;;5112077;28;20048;-62
2023/06/08 04:23:41;;;;;;;13.02;5.80;;;12.40;99.90;;;;;;5113565;28;20118;-62
2023/06/08 04:26:07;;;;;;;14.40;6.85;;;12.40;99.90;;;;;;5112292;28;20127;-62
2023/06/08 04:28:34;;;;;;;17.63;5.90;;;12.40;99.90;;;;;;5113286;28;20047;-62
2023/06/08 04:31:01;;;;;;;16.45;5.72;;;12.50;99.90;;;;;;5112154;28;20551;-62
2023/06/08 04:33:30;;;;;;;16.67;6.22;;;12.50;99.90;;;;;;5111795;28;20036;-62
2023/06/08 04:35:56;;;;;;;14.57;5.70;;;12.50;99.90;;;;;;5113087;28;20049;-62
2023/06/08 04:38:22;;;;;;;12.77;6.30;;;12.50;99.90;;;;;;5113003;28;20043;-63
2023/06/08 04:40:53;;;;;;;17.60;5.88;;;12.60;99.90;;;;;;5112613;28;20077;-62
2023/06/08 04:43:20;;;;;;;11.73;5.75;;;12.60;99.90;;;;;;5112027;28;20043;-62
2023/06/08 04:45:49;;;;;;;13.48;6.13;;;12.60;99.90;;;;;;5112035;28;20032;-62
2023/06/08 04:48:15;;;;;;;14.75;6.30;;;12.60;99.90;;;;;;5111338;28;20035;-62
2023/06/08 04:50:45;;;;;;;13.35;6.32;;;12.70;99.90;;;;;;5109849;28;20109;-62
2023/06/08 04:53:12;;;;;;;14.88;6.28;;;12.70;99.90;;;;;;5113253;28;20046;-62
2023/06/08 04:55:37;;;;;;;15.70;6.35;;;12.70;99.90;;;;;;5111550;28;20480;-62
2023/06/08 04:58:03;;;;;;;13.75;6.28;;;12.80;99.90;;;;;;5111539;28;20046;-62
2023/06/08 05:00:28;;;;;;;14.32;5.72;;;12.80;99.90;;;;;;5111649;28;20094;-63
2023/06/08 05:02:54;;;;;;;14.20;5.80;;;12.90;99.90;;;;;;5112277;28;20127;-63
2023/06/08 05:05:20;;;;;;;13.25;5.00;;;12.80;99.90;;;;;;5111480;28;20043;-62
2023/06/08 05:07:47;;;;;;;13.02;5.50;;;12.80;99.90;;;;;;5111624;28;20044;-63
2023/06/08 05:10:13;;;;;;;15.52;6.07;;;12.80;99.90;;;;;;5093976;28;20472;-62
2023/06/08 05:12:38;;;;;;;13.48;6.82;;;12.80;99.90;;;;;;5112616;28;20035;-62
2023/06/08 05:15:05;;;;;;;10.43;4.93;;;12.90;99.90;;;;;;5111588;28;20043;-62
2023/06/08 05:17:30;;;;;;;12.88;5.80;;;12.90;99.90;;;;;;5110872;28;20050;-63
2023/06/08 05:19:56;;;;;;;17.75;5.85;;;13.00;99.90;;;;;;5111397;28;20488;-62
2023/06/08 05:22:22;;;;;;;14.25;5.70;;;13.00;99.90;;;;;;5112246;28;20040;-63
2023/06/08 05:24:47;;;;;;;22.48;6.85;;;13.00;99.90;;;;;;5112740;28;20156;-62
2023/06/08 05:27:13;;;;;;;15.07;6.32;;;13.00;99.90;;;;;;5111926;28;20047;-62
2023/06/08 05:29:39;;;;;;;11.45;5.85;;;13.10;99.90;;;;;;5110789;28;20043;-62
2023/06/08 05:32:06;;;;;;;10.13;5.13;;;13.20;99.90;;;;;;5112761;28;20433;-62
2023/06/08 05:34:31;;;;;;;10.30;4.78;;;13.30;99.90;;;;;;5112375;28;20047;-62
2023/06/08 05:36:57;;;;;;;12.32;4.90;;;13.30;99.90;;;;;;5110449;28;20039;-62
2023/06/08 05:39:23;;;;;;;15.98;5.50;;;13.30;99.90;;;;;;5094030;28;20042;-62
2023/06/08 05:41:48;;;;;;;17.30;6.30;;;13.20;99.90;;;;;;5112471;28;20035;-62
2023/06/08 05:44:14;;;;;;;10.60;5.30;;;13.20;99.90;;;;;;5110694;28;20036;-62
2023/06/08 05:46:40;;;;;;;15.32;5.75;;;13.20;99.90;;;;;;5111768;28;20393;-62
2023/06/08 05:49:05;;;;;;;14.20;5.18;;;13.20;99.90;;;;;;5112561;28;20039;-63
2023/06/08 05:51:31;;;;;;;13.23;5.78;;;13.30;99.90;;;;;;5110677;28;20036;-62
2023/06/08 05:53:57;;;;;;;11.05;5.20;;;13.30;99.90;;;;;;5112226;28;20031;-63
2023/06/08 05:56:23;;;;;;;12.77;4.85;;;13.30;99.90;;;;;;5112294;28;20063;-62
2023/06/08 05:58:48;;;;;;;20.63;5.15;;;13.30;99.90;;;;;;5110287;28;20496;-62
2023/06/08 06:01:14;;;;;;;20.38;5.25;;;13.20;99.90;;;;;;5107077;28;20032;-62
2023/06/08 06:03:40;;;;;;;16.63;6.68;;;13.30;99.90;;;;;;5117944;28;20035;-63
2023/06/08 06:06:06;;;;;;;12.30;5.28;;;13.40;99.90;;;;;;5094054;28;20039;-62
2023/06/08 06:08:32;;;;;;;17.50;5.53;;;13.60;99.90;;;;;;5092053;28;20412;-62
2023/06/08 06:10:58;;;;;;;20.10;5.30;;;13.70;99.90;;;;;;5090523;28;20044;-62
2023/06/08 06:13:24;;;;;;;10.50;5.13;;;13.80;99.90;;;;;;5089782;28;20038;-62
2023/06/08 06:15:50;;;;;;;12.02;4.90;;;14.00;99.90;;;;;;5090039;28;20578;-62
2023/06/08 06:18:16;;;;;;;15.48;5.07;;;14.00;99.90;;;;;;5091614;28;20056;-62
2023/06/08 06:20:42;;;;;;;11.48;4.18;;;14.10;99.90;;;;;;5089689;28;20051;-62
2023/06/08 06:23:07;;;;;;;10.50;4.57;;;14.20;99.90;;;;;;5090586;28;20044;-62
2023/06/08 06:25:35;;;;;;;12.38;4.85;;;14.10;99.90;;;;;;5090327;28;20392;-62
2023/06/08 06:28:02;;;;;;;14.63;6.13;;;13.90;99.90;;;;;;5091410;28;20048;-62
2023/06/08 06:30:27;;;;;;;9.55;4.30;;;13.90;99.90;;;;;;5091210;28;20047;-62
2023/06/08 06:32:53;;;;;;;17.73;5.10;;;13.90;99.90;;;;;;5090946;28;20036;-62
2023/06/08 06:35:19;;;;;;;11.38;4.55;;;14.10;99.90;;;;;;5091222;28;20036;-62
2023/06/08 06:37:44;;;;;;;13.75;5.05;;;14.40;99.90;;;;;;5091641;28;20036;-62
2023/06/08 06:40:11;;;;;;;14.30;5.57;;;14.50;99.90;;;;;;5088766;28;20055;-62
2023/06/08 06:42:37;;;;;;;12.15;4.85;;;14.60;99.90;;;;;;5100594;28;20110;-62
2023/06/08 06:45:04;;;;;;;16.92;5.57;;;14.70;99.90;;;;;;5117308;28;20488;-62
2023/06/08 06:47:30;;;;;;;14.45;5.30;;;14.70;99.90;;;;;;5111443;28;20044;-62
2023/06/08 06:49:56;;;;;;;20.23;6.57;;;14.80;99.90;;;;;;5094703;28;20050;-62
2023/06/08 06:52:21;;;;;;;14.30;5.38;;;14.80;99.90;;;;;;5112620;28;20073;-62
2023/06/08 06:54:47;;;;;;;11.70;5.10;;;14.70;99.90;;;;;;5112140;28;20114;-62
2023/06/08 06:57:13;;;;;;;10.45;5.13;;;14.80;99.90;;;;;;5109525;28;20044;-63
2023/06/08 06:59:39;;;;;;;12.57;4.47;;;14.90;99.90;;;;;;5107178;28;20035;-62
2023/06/08 07:02:06;;;;;;;10.75;4.72;;;15.00;99.90;;;;;;5105578;28;20461;-62
2023/06/08 07:04:32;;;;;;;10.07;4.45;;;15.00;99.90;;;;;;5097860;28;20048;-62
2023/06/08 07:06:58;;;;;;;13.40;5.30;;;15.10;99.90;;;;;;5097545;28;20036;-63
2023/06/08 07:09:24;;;;;;;12.65;4.90;;;15.20;99.90;;;;;;5102973;28;20101;-62
2023/06/08 07:11:51;;;;;;;14.50;4.63;;;15.20;99.90;;;;;;5111214;28;20047;-63
2023/06/08 07:14:17;;;;;;;11.80;4.88;;;15.20;99.90;;;;;;5110166;28;20039;-62
2023/06/08 07:16:43;;;;;;;11.57;4.22;;;15.30;99.90;;;;;;5111016;28;20039;-62
2023/06/08 07:19:08;;;;;;;12.07;5.30;;;15.40;99.90;;;;;;5106246;28;20039;-62
2023/06/08 07:21:38;;;;;;;14.75;5.65;;;15.40;99.90;;;;;;5090688;28;20062;-62
2023/06/08 07:24:07;;;;;;;13.02;4.13;;;15.40;99.90;;;;;;5109374;28;20043;-62
2023/06/08 07:26:34;;;;;;;9.82;4.53;;;15.40;99.90;;;;;;5110182;28;20131;-62
2023/06/08 07:29:00;;;;;;;9.57;4.10;;;15.50;99.90;;;;;;5108379;28;20112;-63
2023/06/08 07:31:27;;;;;;;11.70;4.55;;;15.50;99.90;;;;;;5109936;28;20425;-62
2023/06/08 07:33:57;;;;;;;19.27;4.47;;;15.60;99.90;;;;;;5109192;28;20085;-63
2023/06/08 07:36:22;;;;;;;8.65;4.03;;;15.60;99.90;;;;;;5103164;28;20054;-62
2023/06/08 07:38:51;;;;;;;14.63;4.13;;;15.50;99.90;;;;;;5093528;28;20512;-62
2023/06/08 07:41:20;;;;;;;7.00;3.63;;;15.50;99.90;;;;;;5097544;28;20415;-62
2023/06/08 07:43:46;;;;;;;9.30;3.53;;;15.60;99.90;;;;;;5107714;28;20043;-62
2023/06/08 07:46:12;;;;;;;11.85;4.50;;;15.70;99.90;;;;;;5106274;28;20050;-62
2023/06/08 07:48:38;;;;;;;11.65;4.50;;;15.80;99.90;;;;;;5101826;28;20047;-62
2023/06/08 07:51:04;;;;;;;10.35;4.70;;;15.90;99.90;;;;;;5102178;28;20035;-62
2023/06/08 07:53:37;;;;;;;9.13;4.85;;;15.90;99.90;;;;;;5106425;28;20047;-62
2023/06/08 07:56:03;;;;;;;13.18;4.95;;;15.90;99.90;;;;;;5102161;28;20043;-62
2023/06/08 07:58:29;;;;;;;10.50;4.38;;;15.90;99.90;;;;;;5100674;28;20044;-62
2023/06/08 08:00:55;;;;;;;10.68;4.60;;;15.80;99.90;;;;;;5090640;28;20043;-62
2023/06/08 08:03:21;;;;;;;12.52;4.70;;;15.90;99.90;;;;;;5090576;28;20047;-62
2023/06/08 08:05:49;;;;;;;14.40;5.05;;;15.90;99.90;;;;;;5101706;28;20075;-62
2023/06/08 08:08:15;;;;;;;10.77;5.03;;;15.90;99.90;;;;;;5108507;28;20503;-63
2023/06/08 08:10:44;;;;;;;10.55;5.10;;;15.90;99.90;;;;;;5092167;28;20075;-63
2023/06/08 08:13:12;;;;;;;12.18;4.55;;;16.00;99.90;;;;;;5092434;28;20079;-62
2023/06/08 08:15:39;;;;;;;17.50;4.95;;;16.00;99.90;;;;;;5101119;28;20043;-62
2023/06/08 08:18:05;;;;;;;9.77;5.10;;;16.10;99.90;;;;;;5092223;28;20036;-62
2023/06/08 08:20:31;;;;;;;8.10;4.32;;;16.10;99.90;;;;;;5091475;28;20090;-62
2023/06/08 08:22:56;;;;;;;10.38;4.53;;;16.20;99.90;;;;;;5096584;28;20389;-62
2023/06/08 08:25:22;;;;;;;14.10;5.13;;;16.30;99.90;;;;;;5093139;28;20393;-62
2023/06/08 08:27:48;;;;;;;9.70;4.65;;;16.30;99.90;;;;;;5091757;28;20560;-62
2023/06/08 08:30:14;;;;;;;9.93;4.30;;;16.30;99.90;;;;;;5101533;28;20032;-64
2023/06/08 08:32:40;;;;;;;11.20;4.68;;;16.30;99.90;;;;;;5111385;28;20073;-64
2023/06/08 08:35:06;;;;;;;11.93;5.30;;;16.30;99.90;;;;;;5098150;28;20121;-64
2023/06/08 08:37:32;;;;;;;9.82;3.75;;;16.50;99.90;;;;;;5093025;28;20047;-63
2023/06/08 08:39:58;;;;;;;15.52;4.93;;;16.60;99.90;;;;;;5092559;28;20052;-58
2023/06/08 08:42:30;;;;;;;11.77;4.45;;;16.70;99.90;;;;;;5091541;28;20046;-63
2023/06/08 08:45:00;;;;;;;11.82;5.00;;;16.70;99.90;;;;;;5091671;28;20119;-63
2023/06/08 08:47:29;;;;;;;9.82;4.65;;;16.80;99.90;;;;;;5091065;28;20058;-63
2023/06/08 08:50:06;;;;;;;13.75;4.57;;;16.80;99.90;;;;;;5092445;28;20115;-62
2023/06/08 08:52:37;;;;;;;13.07;4.43;;;16.90;99.90;;;;;;5092833;28;20488;-62
2023/06/08 08:55:04;;;;;;;12.45;4.70;;;16.70;99.90;;;;;;5092533;28;20047;-63
2023/06/08 08:57:31;;;;;;;13.85;3.92;;;16.70;99.90;;;;;;5095930;28;20043;-63
2023/06/08 08:59:58;;;;;;;7.82;3.60;;;16.70;99.90;;;;;;5113007;28;20100;-63
2023/06/08 09:02:24;;;;;;;11.05;4.43;;;16.60;99.90;;;;;;5094436;28;20051;-63
2023/06/08 09:04:52;;;;;;;8.57;3.85;;;16.70;99.90;;;;;;5111567;28;20039;-63
2023/06/08 09:07:20;;;;;;;12.95;3.88;;;16.80;99.90;;;;;;5111669;28;20396;-63
2023/06/08 09:10:11;;;;;;;9.30;4.43;;;16.80;99.90;;;;;;5111375;28;20093;-63
2023/06/08 09:12:47;;;;;;;11.65;5.00;;;16.90;99.90;;;;;;5094047;28;20044;-63
2023/06/08 09:15:23;;;;;;;14.68;4.80;;;17.00;99.90;;;;;;5112338;28;20039;-63
2023/06/08 09:17:50;;;;;;;9.23;4.20;;;17.00;99.90;;;;;;5111191;28;20039;-63
2023/06/08 09:20:27;;;;;;;10.15;3.97;;;17.10;99.90;;;;;;5112513;28;20050;-62
2023/06/08 09:22:53;;;;;;;8.20;3.60;;;17.10;99.90;;;;;;5110718;28;20082;-62
2023/06/08 09:25:36;;;;;;;8.35;4.47;;;17.00;99.90;;;;;;5111150;28;20039;-62
2023/06/08 09:28:18;;;;;;;8.10;3.22;;;17.00;99.90;;;;;;5111600;28;20106;-62
2023/06/08 09:30:45;;;;;;;8.35;3.95;;;17.00;99.90;;;;;;5111601;28;20027;-62
2023/06/08 09:33:25;;;;;;;13.60;3.90;;;17.00;99.90;;;;;;5092774;28;20036;-62
2023/06/08 09:35:57;;;;;;;7.30;3.85;;;17.00;99.90;;;;;;5110372;28;20039;-62
2023/06/08 09:38:25;;;;;;;13.20;4.25;;;16.90;99.90;;;;;;5111023;28;20046;-63
2023/06/08 09:40:51;;;;;;;10.98;4.40;;;16.90;99.90;;;;;;5111276;28;20047;-62
2023/06/08 09:43:32;;;;;;;8.95;4.45;;;17.00;99.90;;;;;;5112130;28;20415;-62
2023/06/08 09:45:58;;;;;;;9.60;4.72;;;17.00;99.90;;;;;;5110966;28;20044;-62
2023/06/08 09:48:23;;;;;;;9.80;4.20;;;17.00;99.90;;;;;;5099477;28;20040;-63
2023/06/08 09:50:49;;;;;;;10.02;4.00;;;17.10;99.90;;;;;;5089981;28;20039;-62
2023/06/08 09:53:16;;;;;;;9.48;4.07;;;17.10;99.90;;;;;;5111761;28;20427;-62
2023/06/08 09:55:43;;;;;;;8.68;4.03;;;17.20;99.90;;;;;;5111120;28;20381;-62
2023/06/08 09:58:10;;;;;;;13.38;4.40;;;17.20;99.90;;;;;;5111607;28;20044;-63
2023/06/08 10:00:37;;;;;;;12.70;5.03;;;17.30;99.90;;;;;;5100852;28;20400;-62
2023/06/08 10:03:19;;;;;;;8.98;3.72;;;17.40;99.90;;;;;;5108707;28;20047;-63
2023/06/08 10:05:46;;;;;;;13.77;4.50;;;17.40;99.90;;;;;;5109928;28;20556;-63
2023/06/08 10:08:15;;;;;;;10.73;4.15;;;17.40;99.90;;;;;;5110710;28;20039;-62
2023/06/08 10:10:41;;;;;;;8.43;4.38;;;17.40;99.90;;;;;;5111374;28;20043;-62
2023/06/08 10:13:10;;;;;;;8.90;4.20;;;17.40;99.90;;;;;;5110973;28;20111;-62
2023/06/08 10:15:36;;;;;;;9.05;4.15;;;17.30;99.90;;;;;;5110878;28;20039;-63
2023/06/08 10:18:03;;;;;;;10.93;4.80;;;17.30;99.90;;;;;;5105569;28;20440;-62
2023/06/08 10:20:30;;;;;;;7.93;4.38;;;17.30;99.90;;;;;;5091304;28;20050;-63
2023/06/08 10:23:00;;;;;;;9.95;4.30;;;17.30;99.90;;;;;;5108909;28;20043;-62
2023/06/08 10:25:30;;;;;;;10.98;4.60;;;17.30;99.90;;;;;;5091947;28;20455;-62
2023/06/08 10:28:06;;;;;;;9.30;4.80;;;17.30;99.90;;;;;;5108588;28;20044;-62
2023/06/08 10:30:41;;;;;;;8.40;4.22;;;17.40;99.90;;;;;;5115213;28;20082;-63
2023/06/08 10:33:08;;;;;;;11.35;5.50;;;17.40;99.90;;;;;;5113462;28;20048;-63
2023/06/08 10:35:34;;;;;;;20.48;5.90;;;17.40;99.90;;;;;;5113969;28;20035;-63
2023/06/08 10:38:12;;;;;;;9.43;4.00;;;17.50;99.90;;;;;;5097192;28;20445;-63
2023/06/08 10:40:41;;;;;;;8.98;4.95;;;17.50;99.90;;;;;;5113518;28;20385;-63
2023/06/08 10:43:08;;;;;;;10.63;4.28;;;17.40;99.90;;;;;;5113640;28;20048;-62
2023/06/08 10:45:37;;;;;;;12.02;4.05;;;17.60;99.90;;;;;;5114457;28;20039;-61
2023/06/08 10:48:07;;;;;;;11.60;4.10;;;17.60;99.90;;;;;;5095194;28;20047;-64
2023/06/08 10:50:37;;;;;;;10.73;4.40;;;17.80;99.90;;;;;;5095149;28;20036;-61
2023/06/08 10:53:05;;;;;;;6.72;3.33;;;17.90;99.90;;;;;;5096539;28;20515;-61
2023/06/08 10:55:32;;;;;;;11.90;3.70;;;18.00;99.90;;;;;;5108984;28;20466;-62
2023/06/08 10:58:06;;;;;;;9.15;3.95;;;17.90;99.90;;;;;;5110293;28;20039;-62
2023/06/08 11:00:32;;;;;;;8.43;3.80;;;17.90;99.90;;;;;;5090789;28;20044;-62
2023/06/08 11:03:06;;;;;;;13.38;4.03;;;17.90;99.90;;;;;;5074113;28;20384;-62
2023/06/08 11:05:34;;;;;;;10.05;3.28;;;18.00;99.90;;;;;;5091871;28;20048;-62
2023/06/08 11:08:03;;;;;;;8.50;3.55;;;18.20;99.90;;;;;;5089964;28;20043;-62
2023/06/08 11:10:32;;;;;;;14.02;3.65;;;18.20;99.90;;;;;;5093301;28;20066;-62
2023/06/08 11:13:09;;;;;;;9.35;3.67;;;18.30;99.90;;;;;;5097900;28;20043;-62
2023/06/08 11:15:43;;;;;;;9.73;3.00;;;18.20;99.90;;;;;;5105294;28;20046;-62
2023/06/08 11:18:10;;;;;;;9.93;3.80;;;18.10;99.90;;;;;;5098166;28;20035;-61
2023/06/08 11:20:38;;;;;;;8.77;3.47;;;18.20;99.90;;;;;;5100541;28;20499;-62
2023/06/08 11:23:10;;;;;;;7.65;3.45;;;18.10;99.90;;;;;;5079926;28;20067;-62
2023/06/08 11:25:36;;;;;;;10.23;3.03;;;18.10;99.90;;;;;;5112328;28;20052;-62
2023/06/08 11:28:02;;;;;;;6.43;2.90;;;18.10;99.90;;;;;;5095634;28;20577;-62
2023/06/08 11:30:31;;;;;;;9.63;3.67;;;18.10;99.90;;;;;;5097074;28;20475;-62
2023/06/08 11:32:57;;;;;;;9.55;3.05;;;18.00;99.90;;;;;;5110661;28;20047;-61
2023/06/08 11:35:23;;;;;;;6.55;3.45;;;18.20;99.90;;;;;;5109782;28;20094;-61
2023/06/08 11:37:51;;;;;;;8.73;3.88;;;18.20;99.90;;;;;;5110292;28;20516;-61
2023/06/08 11:40:17;;;;;;;7.25;3.55;;;18.20;99.90;;;;;;5093080;28;20054;-60
2023/06/08 11:42:44;;;;;;;6.43;3.10;;;18.10;99.90;;;;;;5105016;28;20048;-60
2023/06/08 11:45:11;;;;;;;6.53;3.25;;;18.10;99.90;;;;;;5111140;28;20082;-60
2023/06/08 11:47:42;;;;;;;9.43;3.50;;;18.10;99.90;;;;;;5105773;28;20039;-60
2023/06/08 11:50:10;;;;;;;10.52;3.80;;;18.10;99.90;;;;;;5107528;28;20422;-61
2023/06/08 11:52:41;;;;;;;11.05;3.10;;;18.10;99.90;;;;;;5111243;28;20054;-60
2023/06/08 11:55:13;;;;;;;8.18;3.42;;;18.20;99.90;;;;;;5110404;28;20118;-61
2023/06/08 11:57:47;;;;;;;9.80;3.40;;;18.30;99.90;;;;;;5109519;28;20050;-61
2023/06/08 12:00:28;;;;;;;5.68;2.70;;;18.30;99.90;;;;;;5109722;28;20085;-61
2023/06/08 12:02:55;;;;;;;9.18;3.60;;;18.30;99.90;;;;;;5110036;28;20043;-61
2023/06/08 12:05:32;;;;;;;10.73;3.17;;;18.30;99.90;;;;;;5108786;28;20048;-61
2023/06/08 12:08:04;;;;;;;8.73;2.97;;;18.40;99.90;;;;;;5110007;28;20044;-61
2023/06/08 12:10:37;;;;;;;9.20;3.42;;;18.40;99.90;;;;;;5110478;28;20036;-61
2023/06/08 12:13:08;;;;;;;7.30;3.47;;;18.40;99.90;;;;;;5109919;28;20039;-61
2023/06/08 12:15:36;;;;;;;7.63;3.45;;;18.30;99.90;;;;;;5108742;28;20039;-62
2023/06/08 12:18:02;;;;;;;8.48;3.65;;;18.20;99.90;;;;;;5112953;28;20043;-61
2023/06/08 12:20:33;;;;;;;8.38;3.60;;;18.30;99.90;;;;;;5111785;28;20050;-62
2023/06/08 12:22:59;;;;;;;8.73;3.22;;;18.40;99.90;;;;;;5089030;28;20115;-61
2023/06/08 12:25:25;;;;;;;10.02;3.35;;;18.40;99.90;;;;;;5092333;28;20048;-61
2023/06/08 12:27:51;;;;;;;6.97;3.10;;;18.30;99.90;;;;;;5092573;28;20118;-62
2023/06/08 12:30:17;;;;;;;11.27;3.17;;;18.30;99.90;;;;;;5091996;28;20046;-61
2023/06/08 12:32:44;;;;;;;9.65;3.00;;;18.30;99.90;;;;;;5091257;28;20396;-61
2023/06/08 12:35:10;;;;;;;8.77;3.22;;;18.50;99.90;;;;;;5091748;28;20388;-61
2023/06/08 12:37:36;;;;;;;12.07;4.07;;;18.60;99.90;;;;;;5092059;28;20047;-61
2023/06/08 12:40:03;;;;;;;10.77;2.85;;;18.60;99.90;;;;;;5092334;28;20111;-61
2023/06/08 12:42:29;;;;;;;8.85;2.70;;;18.60;99.90;;;;;;5093069;28;20051;-60